Time;durP1;ratioP1;P1;durP2;ratioP2;P2;SDS_P1;SDS_P2;PMS_P1;PMS_P2;Temp;Humidity;BMP_temperature;BMP_pressure;BME280_temperature;BME280_humidity;BME280_pressure;Samples;Min_cycle;Max_cycle;Signal;HPM_P1;HPM_P2
2021/07/17 00:00:12;;;;;;;1.85;1.40;;;27.30;51.00;;;-147.20;100.00;58430.41;5115670;28;20436;-51
2021/07/17 00:02:38;;;;;;;1.60;1.33;;;27.30;51.00;;;-147.20;100.00;58430.41;5115587;28;20082;-54
2021/07/17 00:05:09;;;;;;;1.35;1.25;;;27.30;51.00;;;-147.20;100.00;58430.41;5115923;28;20550;-52
2021/07/17 00:07:35;;;;;;;;;;;27.30;51.00;;;-147.20;100.00;58430.41;5116446;28;20042;-53
2021/07/17 00:10:03;;;;;;;1.48;1.27;;;27.30;51.10;;;-147.20;100.00;58430.41;5115705;28;19923;-51
2021/07/17 00:12:28;;;;;;;2.33;1.35;;;27.30;51.10;;;-147.20;100.00;58430.41;5116155;28;20467;-52
2021/07/17 00:14:54;;;;;;;1.75;1.42;;;27.20;51.00;;;-147.20;100.00;58430.41;5116079;28;20053;-53
2021/07/17 00:17:22;;;;;;;1.38;1.27;;;27.20;51.00;;;-147.20;100.00;58430.41;5115705;28;20054;-52
2021/07/17 00:19:48;;;;;;;2.28;1.40;;;27.20;51.10;;;-147.20;100.00;58430.41;5115415;28;20092;-53
2021/07/17 00:22:13;;;;;;;1.42;1.20;;;27.20;51.10;;;-147.20;100.00;58430.41;5115653;28;20106;-53
2021/07/17 00:24:39;;;;;;;1.45;1.30;;;27.20;51.10;;;-147.20;100.00;58430.41;5115450;28;20054;-49
2021/07/17 00:27:05;;;;;;;1.33;1.13;;;27.20;51.10;;;-147.20;100.00;58430.41;5115349;28;20112;-51
2021/07/17 00:29:31;;;;;;;1.45;1.35;;;27.20;51.20;;;-147.20;100.00;58430.41;5115414;28;20078;-50
2021/07/17 00:31:56;;;;;;;1.13;1.10;;;27.20;51.20;;;-147.20;100.00;58430.41;5115238;28;20487;-55
2021/07/17 00:34:22;;;;;;;1.27;1.17;;;27.20;51.20;;;-147.20;100.00;58430.41;5115456;28;20070;-54
2021/07/17 00:36:48;;;;;;;1.10;1.10;;;27.20;51.20;;;-147.20;100.00;58430.41;5115399;28;20071;-55
2021/07/17 00:39:14;;;;;;;1.08;0.98;;;27.20;51.30;;;-147.20;100.00;58430.41;5115194;28;20051;-55
2021/07/17 00:41:39;;;;;;;1.63;1.23;;;27.20;51.30;;;-147.20;100.00;58430.41;5115065;28;20050;-50
2021/07/17 00:44:07;;;;;;;2.20;1.58;;;27.20;51.30;;;-147.20;100.00;58430.41;5115157;28;20048;-54
2021/07/17 00:46:34;;;;;;;1.45;1.30;;;27.20;51.30;;;-147.20;100.00;58430.41;5115625;28;20048;-52
2021/07/17 00:49:00;;;;;;;1.20;1.10;;;27.10;51.30;;;-147.20;100.00;58430.41;5096721;28;20059;-54
2021/07/17 00:51:26;;;;;;;1.90;1.50;;;27.10;51.40;;;-147.20;100.00;58430.41;5096948;28;20043;-53
2021/07/17 00:53:52;;;;;;;1.48;1.38;;;27.10;51.30;;;-147.20;100.00;58430.41;5115003;28;20043;-50
2021/07/17 00:56:20;;;;;;;1.35;1.17;;;27.10;51.30;;;-147.20;100.00;58430.41;5114945;28;20411;-53
2021/07/17 00:58:49;;;;;;;1.40;1.30;;;27.10;51.40;;;-147.20;100.00;58430.41;5114868;28;20046;-50
2021/07/17 01:01:15;;;;;;;2.05;1.42;;;27.10;51.40;;;-147.20;100.00;58430.41;5096923;28;20051;-50
2021/07/17 01:03:42;;;;;;;1.13;1.05;;;27.10;51.40;;;-147.20;100.00;58430.41;5096650;28;20046;-50
2021/07/17 01:06:08;;;;;;;1.52;1.40;;;27.10;51.40;;;-147.20;100.00;58430.41;5096393;28;20402;-52
2021/07/17 01:08:35;;;;;;;1.73;1.45;;;27.10;51.40;;;-147.20;100.00;58430.41;5114908;28;20391;-53
2021/07/17 01:11:01;;;;;;;1.40;1.30;;;27.10;51.40;;;-147.20;100.00;58430.41;5095750;28;20122;-51
2021/07/17 01:13:27;;;;;;;1.40;1.27;;;27.00;51.40;;;-147.20;100.00;58430.41;5114498;28;20143;-53
2021/07/17 01:15:54;;;;;;;1.17;1.10;;;27.10;51.50;;;-147.20;100.00;58430.41;5114835;28;20062;-52
2021/07/17 01:18:20;;;;;;;1.30;1.20;;;27.10;51.50;;;-147.20;100.00;58430.41;5096607;28;20128;-55
2021/07/17 01:20:46;;;;;;;1.27;1.17;;;27.10;51.50;;;-147.20;100.00;58430.41;5114310;28;20083;-51
2021/07/17 01:23:12;;;;;;;2.60;1.30;;;27.00;51.50;;;-147.20;100.00;58430.41;5095207;28;20048;-53
2021/07/17 01:25:38;;;;;;;1.33;1.23;;;27.00;51.50;;;-147.20;100.00;58430.41;5114250;28;20085;-49
2021/07/17 01:28:04;;;;;;;1.35;1.20;;;27.00;51.50;;;-147.20;100.00;58430.41;5114195;28;20495;-50
2021/07/17 01:30:34;;;;;;;1.60;1.50;;;27.00;51.50;;;-147.20;100.00;58430.41;5114236;28;20043;-52
2021/07/17 01:33:01;;;;;;;1.70;1.60;;;27.00;51.60;;;-147.20;100.00;58430.41;5114816;28;20087;-51
2021/07/17 01:35:27;;;;;;;1.45;1.30;;;27.00;51.60;;;-147.20;100.00;58430.41;5114219;28;20043;-52
2021/07/17 01:37:53;;;;;;;1.15;1.08;;;27.00;51.60;;;-147.20;100.00;58430.41;5114156;28;20052;-52
2021/07/17 01:40:20;;;;;;;1.30;1.17;;;27.00;51.70;;;-147.20;100.00;58430.41;5114219;28;20051;-55
2021/07/17 01:42:53;;;;;;;1.33;1.23;;;27.00;51.70;;;-147.20;100.00;58430.41;5114207;28;20040;-48
2021/07/17 01:45:28;;;;;;;1.58;1.45;;;27.00;51.70;;;-147.20;100.00;58430.41;5114034;28;20116;-51
2021/07/17 01:47:55;;;;;;;1.40;1.30;;;26.90;51.60;;;-147.20;100.00;58430.41;5114230;28;20058;-54
2021/07/17 01:50:24;;;;;;;2.10;1.50;;;26.90;51.70;;;-147.20;100.00;58430.41;5114337;28;20051;-52
2021/07/17 01:52:51;;;;;;;1.30;1.20;;;26.90;51.70;;;-147.20;100.00;58430.41;5096059;28;20097;-51
2021/07/17 01:55:17;;;;;;;1.25;1.15;;;26.90;51.70;;;-147.20;100.00;58430.41;5113855;28;20403;-54
2021/07/17 01:57:48;;;;;;;1.20;1.10;;;26.90;51.70;;;-147.20;100.00;58430.41;5113829;28;20066;-52
2021/07/17 02:00:15;;;;;;;1.67;1.30;;;26.90;51.80;;;-147.20;100.00;58430.41;5095974;28;20463;-50
2021/07/17 02:02:43;;;;;;;1.52;1.20;;;26.90;51.80;;;-147.20;100.00;58430.41;5113892;28;20100;-52
2021/07/17 02:05:10;;;;;;;1.40;1.30;;;26.90;51.80;;;-147.20;100.00;58430.41;5114003;28;20055;-49
2021/07/17 02:07:36;;;;;;;2.15;1.60;;;26.90;51.80;;;-147.20;100.00;58430.41;5113727;28;20134;-49
2021/07/17 02:10:10;;;;;;;2.05;1.33;;;26.90;51.80;;;-147.20;100.00;58430.41;5095798;28;20555;-52
2021/07/17 02:12:56;;;;;;;1.40;1.30;;;26.90;51.90;;;-147.20;100.00;58430.41;5114365;28;20054;-50
2021/07/17 02:15:22;;;;;;;2.15;1.55;;;26.90;51.90;;;-147.20;100.00;58430.41;5114188;28;20046;-49
2021/07/17 02:17:49;;;;;;;1.40;1.17;;;26.90;51.90;;;-147.20;100.00;58430.41;5113664;28;20043;-54
2021/07/17 02:20:15;;;;;;;1.50;1.30;;;26.90;51.90;;;-147.20;100.00;58430.41;5113504;28;20130;-52
2021/07/17 02:22:41;;;;;;;1.58;1.23;;;26.80;51.90;;;-147.20;100.00;58430.41;5113823;28;20479;-52
2021/07/17 02:25:08;;;;;;;1.45;1.35;;;26.90;52.00;;;-147.20;100.00;58430.41;5113461;28;20059;-53
2021/07/17 02:27:34;;;;;;;1.35;1.25;;;26.80;52.00;;;-147.20;100.00;58430.41;5113474;28;20088;-47
2021/07/17 02:30:00;;;;;;;1.52;1.20;;;26.80;51.90;;;-147.20;100.00;58430.41;5113328;28;20052;-52
2021/07/17 02:32:25;;;;;;;1.42;1.33;;;26.80;52.00;;;-147.20;100.00;58430.41;5113374;28;20505;-52
2021/07/17 02:34:51;;;;;;;1.40;1.30;;;26.80;52.00;;;-147.20;100.00;58430.41;5113377;28;20047;-52
2021/07/17 02:37:17;;;;;;;1.55;1.40;;;26.80;52.00;;;-147.20;100.00;58430.41;5113260;28;20040;-51
2021/07/17 02:39:43;;;;;;;1.48;1.30;;;26.80;52.00;;;-147.20;100.00;58430.41;5113341;28;20058;-52
2021/07/17 02:42:09;;;;;;;1.58;1.42;;;26.80;52.00;;;-147.20;100.00;58430.41;5113596;28;20051;-50
2021/07/17 02:44:35;;;;;;;1.63;1.30;;;26.80;52.10;;;-147.20;100.00;58430.41;5095383;28;20047;-49
2021/07/17 02:47:02;;;;;;;1.40;1.30;;;26.80;52.10;;;-147.20;100.00;58430.41;5113392;28;20062;-53
2021/07/17 02:49:28;;;;;;;1.30;1.20;;;26.80;52.10;;;-147.20;100.00;58430.41;5113137;28;20507;-52
2021/07/17 02:51:55;;;;;;;1.35;1.25;;;26.80;52.10;;;-147.20;100.00;58430.41;5113350;28;20054;-50
2021/07/17 02:54:21;;;;;;;1.20;1.10;;;26.70;52.00;;;-147.20;100.00;58430.41;5113161;28;20475;-54
2021/07/17 02:56:48;;;;;;;1.60;1.50;;;26.70;52.10;;;-147.20;100.00;58430.41;5113336;28;20488;-50
2021/07/17 02:59:13;;;;;;;1.35;1.25;;;26.70;52.10;;;-147.20;100.00;58430.41;5112883;28;20055;-54
2021/07/17 03:01:39;;;;;;;1.35;1.25;;;26.70;52.10;;;-147.20;100.00;58430.41;5113216;28;20044;-56
2021/07/17 03:04:05;;;;;;;1.40;1.30;;;26.70;52.10;;;-147.20;100.00;58430.41;5112915;28;20055;-53
2021/07/17 03:06:31;;;;;;;2.70;1.70;;;26.70;52.10;;;-147.20;100.00;58430.41;5113135;28;20055;-48
2021/07/17 03:08:56;;;;;;;1.10;1.10;;;26.70;52.20;;;-147.20;100.00;58430.41;5113246;28;20118;-46
2021/07/17 03:11:22;;;;;;;1.40;1.30;;;26.70;52.20;;;-147.20;100.00;58430.41;5112893;28;20054;-54
2021/07/17 03:13:49;;;;;;;1.63;1.23;;;26.70;52.20;;;-147.20;100.00;58430.41;5094451;28;20043;-52
2021/07/17 03:16:16;;;;;;;1.50;1.40;;;26.70;52.20;;;-147.20;100.00;58430.41;5094595;28;20044;-52
2021/07/17 03:18:43;;;;;;;1.33;1.23;;;26.70;52.20;;;-147.20;100.00;58430.41;5113279;28;20382;-49
2021/07/17 03:21:10;;;;;;;1.42;1.33;;;26.70;52.20;;;-147.20;100.00;58430.41;5112712;28;20506;-50
2021/07/17 03:23:36;;;;;;;1.58;1.20;;;26.70;52.30;;;-147.20;100.00;58430.41;5112779;28;20043;-53
2021/07/17 03:26:02;;;;;;;1.48;1.38;;;26.70;52.20;;;-147.20;100.00;58430.41;5112673;28;20051;-53
2021/07/17 03:28:29;;;;;;;1.23;1.13;;;26.70;52.20;;;-147.20;100.00;58430.41;5113248;28;20071;-51
2021/07/17 03:30:56;;;;;;;1.95;1.10;;;26.70;52.20;;;-147.20;100.00;58430.41;5092933;28;20048;-51
2021/07/17 03:33:21;;;;;;;1.20;1.10;;;26.70;52.20;;;-147.20;100.00;58430.41;5113789;28;20050;-51
2021/07/17 03:35:47;;;;;;;1.45;1.35;;;26.70;52.20;;;-147.20;100.00;58430.41;5116387;28;20479;-49
2021/07/17 03:38:13;;;;;;;1.38;1.10;;;26.70;52.10;;;-147.20;100.00;58430.41;5116178;28;20483;-51
2021/07/17 03:40:39;;;;;;;1.40;1.30;;;26.70;52.10;;;-147.20;100.00;58430.41;5115705;28;20062;-49
2021/07/17 03:43:04;;;;;;;1.83;1.20;;;26.70;52.10;;;-147.20;100.00;58430.41;5116101;28;20115;-52
2021/07/17 03:45:30;;;;;;;1.40;1.30;;;26.80;52.10;;;-147.20;100.00;58430.41;5115684;28;20040;-52
2021/07/17 03:47:56;;;;;;;1.88;1.42;;;26.80;52.00;;;-147.20;100.00;58430.41;5116057;28;20096;-49
2021/07/17 03:50:23;;;;;;;1.73;1.27;;;26.80;52.00;;;-147.20;100.00;58430.41;5116022;28;20479;-52
2021/07/17 03:52:48;;;;;;;1.35;1.23;;;26.90;52.10;;;-147.20;100.00;58430.41;5116000;28;20048;-49
2021/07/17 03:55:14;;;;;;;1.35;1.25;;;26.90;52.00;;;-147.20;100.00;58430.41;5115934;28;20139;-49
2021/07/17 03:57:40;;;;;;;1.30;1.20;;;26.90;51.90;;;-147.20;100.00;58430.41;5115895;28;20051;-52
2021/07/17 04:00:07;;;;;;;1.48;1.38;;;26.90;51.80;;;-147.20;100.00;58430.41;5115781;28;20506;-49
2021/07/17 04:02:41;;;;;;;1.30;1.20;;;26.90;51.70;;;-147.20;100.00;58430.41;5116029;28;20468;-49
2021/07/17 04:05:14;;;;;;;1.58;1.48;;;27.00;51.60;;;-147.20;100.00;58430.41;5098699;28;20075;-51
2021/07/17 04:07:40;;;;;;;1.30;1.20;;;27.00;51.50;;;-147.20;100.00;58430.41;5116035;28;20051;-51
2021/07/17 04:10:08;;;;;;;1.45;1.35;;;27.10;51.50;;;-147.20;100.00;58430.41;5115460;28;20406;-49
2021/07/17 04:12:34;;;;;;;1.00;1.00;;;27.10;51.40;;;-147.20;100.00;58430.41;5115573;28;20071;-50
2021/07/17 04:15:01;;;;;;;1.23;1.13;;;27.20;51.40;;;-147.20;100.00;58430.41;5115624;28;20127;-49
2021/07/17 04:17:27;;;;;;;1.60;1.10;;;27.20;51.30;;;-147.20;100.00;58430.41;5115480;28;20052;-51
2021/07/17 04:19:53;;;;;;;2.10;1.40;;;27.20;51.20;;;-147.20;100.00;58430.41;5115553;28;20059;-50
2021/07/17 04:22:19;;;;;;;1.90;1.63;;;27.30;51.20;;;-147.20;100.00;58430.41;5115658;28;20044;-47
2021/07/17 04:24:45;;;;;;;1.25;1.17;;;27.30;51.10;;;-147.20;100.00;58430.41;5115715;28;20048;-49
2021/07/17 04:27:11;;;;;;;1.38;1.10;;;27.30;51.10;;;-147.20;100.00;58430.41;5115535;28;20047;-49
2021/07/17 04:29:37;;;;;;;1.42;1.23;;;27.30;51.00;;;-147.20;100.00;58430.41;5095149;28;20392;-50
2021/07/17 04:32:03;;;;;;;1.48;1.20;;;27.40;51.00;;;-147.20;100.00;58430.41;5115214;28;20039;-50
2021/07/17 04:34:29;;;;;;;1.33;1.20;;;27.40;50.90;;;-147.20;100.00;58430.41;5115455;28;20097;-49
2021/07/17 04:36:55;;;;;;;1.30;1.20;;;27.40;50.80;;;-147.20;100.00;58430.41;5115189;28;20048;-48
2021/07/17 04:39:21;;;;;;;1.30;1.20;;;27.50;50.90;;;-147.20;100.00;58430.41;5096798;28;20100;-50
2021/07/17 04:41:47;;;;;;;1.95;1.20;;;27.50;50.80;;;-147.20;100.00;58430.41;5115101;28;20039;-47
2021/07/17 04:44:12;;;;;;;1.60;1.40;;;27.50;50.70;;;-147.20;100.00;58430.41;5115237;28;20135;-50
2021/07/17 04:46:38;;;;;;;1.52;1.30;;;27.60;50.70;;;-147.20;100.00;58430.41;5115045;28;20055;-50
2021/07/17 04:49:04;;;;;;;1.40;1.30;;;27.60;50.60;;;-147.20;100.00;58430.41;5115361;28;20047;-51
2021/07/17 04:51:30;;;;;;;1.65;1.52;;;27.60;50.60;;;-147.20;100.00;58430.41;5114922;28;20039;-48
2021/07/17 04:53:56;;;;;;;1.65;1.33;;;27.60;50.50;;;-147.20;100.00;58430.41;5113771;28;20040;-51
2021/07/17 04:56:21;;;;;;;1.45;1.35;;;27.70;50.50;;;-147.20;100.00;58430.41;5113550;28;20134;-53
2021/07/17 04:58:47;;;;;;;1.30;1.20;;;27.70;50.50;;;-147.20;100.00;58430.41;5114927;28;20044;-49
2021/07/17 05:01:13;;;;;;;1.25;1.15;;;27.80;50.40;;;-147.20;100.00;58430.41;5115102;28;20054;-53
2021/07/17 05:03:39;;;;;;;1.30;1.20;;;27.80;50.40;;;-147.20;100.00;58430.41;5114531;28;20036;-46
2021/07/17 05:06:04;;;;;;;1.38;1.20;;;27.80;50.30;;;-147.20;100.00;58430.41;5113923;28;20103;-49
2021/07/17 05:08:32;;;;;;;1.40;1.30;;;27.90;50.30;;;-147.20;100.00;58430.41;5114627;28;20054;-50
2021/07/17 05:10:59;;;;;;;1.50;1.40;;;27.80;50.10;;;-147.20;100.00;58430.41;5096763;28;20131;-52
2021/07/17 05:13:26;;;;;;;1.25;1.00;;;27.90;50.10;;;-147.20;100.00;58430.41;5114579;28;20130;-51
2021/07/17 05:15:52;;;;;;;1.77;1.20;;;27.90;50.10;;;-147.20;100.00;58430.41;5114900;28;20403;-53
2021/07/17 05:18:18;;;;;;;1.67;1.35;;;28.00;50.10;;;-147.20;100.00;58430.41;5114627;28;20047;-49
2021/07/17 05:20:44;;;;;;;1.55;1.27;;;28.00;50.00;;;-147.20;100.00;58430.41;5114222;28;20048;-51
2021/07/17 05:23:11;;;;;;;1.15;1.05;;;28.00;49.90;;;-147.20;100.00;58430.41;5114125;28;20043;-52
2021/07/17 05:25:37;;;;;;;1.40;1.30;;;28.10;49.90;;;-147.20;100.00;58430.41;5114329;28;20056;-46
2021/07/17 05:28:04;;;;;;;1.50;1.23;;;28.10;49.90;;;-147.20;100.00;58430.41;5114431;28;20047;-53
2021/07/17 05:30:30;;;;;;;1.23;1.13;;;28.10;49.80;;;-147.20;100.00;58430.41;5114475;28;20047;-47
2021/07/17 05:32:56;;;;;;;1.45;1.10;;;28.20;49.80;;;-147.20;100.00;58430.41;5114124;28;20070;-53
2021/07/17 05:35:22;;;;;;;1.20;1.10;;;28.20;49.70;;;-147.20;100.00;58430.41;5114040;28;20051;-51
2021/07/17 05:37:48;;;;;;;1.50;1.20;;;28.20;49.70;;;-147.20;100.00;58430.41;5079561;28;20413;-48
2021/07/17 05:40:15;;;;;;;1.40;1.30;;;28.20;49.60;;;-147.20;100.00;58430.41;5114497;28;20063;-47
2021/07/17 05:42:41;;;;;;;1.50;1.20;;;28.30;49.60;;;-147.20;100.00;58430.41;5114298;28;20047;-49
2021/07/17 05:45:07;;;;;;;1.40;1.25;;;28.30;49.60;;;-147.20;100.00;58430.41;5114094;28;20078;-49
2021/07/17 05:47:33;;;;;;;1.83;1.20;;;28.30;49.60;;;-147.20;100.00;58430.41;5113972;28;20075;-47
2021/07/17 05:49:59;;;;;;;1.10;1.00;;;28.40;49.50;;;-147.20;100.00;58430.41;5114111;28;20439;-53
2021/07/17 05:52:24;;;;;;;1.50;1.40;;;28.40;49.50;;;-147.20;100.00;58430.41;5112687;28;20058;-46
2021/07/17 05:54:50;;;;;;;1.38;1.15;;;28.40;49.40;;;-147.20;100.00;58430.41;5112403;28;20055;-51
2021/07/17 05:57:16;;;;;;;1.58;1.38;;;28.50;49.40;;;-147.20;100.00;58430.41;5113141;28;20043;-47
2021/07/17 05:59:42;;;;;;;1.45;1.30;;;28.50;49.30;;;-147.20;100.00;58430.41;5114004;28;20050;-47
2021/07/17 06:02:08;;;;;;;1.40;1.30;;;28.50;49.20;;;-147.20;100.00;58430.41;5113774;28;20047;-50
2021/07/17 06:04:34;;;;;;;1.58;1.30;;;28.60;49.20;;;-147.20;100.00;58430.41;5095626;28;20059;-49
2021/07/17 06:07:00;;;;;;;1.25;1.15;;;28.60;49.10;;;-147.20;100.00;58430.41;5113601;28;20051;-54
2021/07/17 06:09:26;;;;;;;1.20;1.10;;;28.70;49.10;;;-147.20;100.00;58430.41;5113809;28;20047;-49
2021/07/17 06:11:51;;;;;;;1.10;1.00;;;28.70;49.00;;;-147.20;100.00;58430.41;5094871;28;20055;-52
2021/07/17 06:14:17;;;;;;;1.20;1.10;;;28.80;49.00;;;-147.20;100.00;58430.41;5113985;28;20047;-51
2021/07/17 06:16:44;;;;;;;1.50;1.38;;;28.80;48.90;;;-147.20;100.00;58430.41;5113481;28;20050;-50
2021/07/17 06:19:11;;;;;;;0.90;0.90;;;28.80;48.80;;;-147.20;100.00;58430.41;5113588;28;20043;-47
2021/07/17 06:21:38;;;;;;;1.23;1.02;;;28.90;48.70;;;-147.20;100.00;58430.41;5113545;28;20083;-52
2021/07/17 06:24:04;;;;;;;1.33;1.00;;;28.90;48.60;;;-147.20;100.00;58430.41;5113808;28;20053;-49
2021/07/17 06:26:31;;;;;;;1.60;1.30;;;29.00;48.60;;;-147.20;100.00;58430.41;5095208;28;20079;-51
2021/07/17 06:28:57;;;;;;;1.15;1.05;;;29.00;48.50;;;-147.20;100.00;58430.41;5111637;28;20051;-48
2021/07/17 06:31:23;;;;;;;1.50;1.30;;;29.00;48.40;;;-147.20;100.00;58430.41;5113390;28;20043;-46
2021/07/17 06:33:49;;;;;;;1.20;1.10;;;29.10;48.30;;;-147.20;100.00;58430.41;5113514;28;20074;-48
2021/07/17 06:36:16;;;;;;;1.20;1.10;;;29.10;48.20;;;-147.20;100.00;58430.41;5113438;28;20051;-52
2021/07/17 06:38:43;;;;;;;1.42;1.33;;;29.20;48.20;;;-147.20;100.00;58430.41;5113534;28;20456;-51
2021/07/17 06:41:09;;;;;;;1.33;1.23;;;29.20;48.10;;;-147.20;100.00;58430.41;5113651;28;20090;-49
2021/07/17 06:43:36;;;;;;;1.27;1.17;;;29.30;48.10;;;-147.20;100.00;58430.41;5113280;28;20054;-49
2021/07/17 06:46:03;;;;;;;1.35;1.10;;;29.30;48.00;;;-147.20;100.00;58430.41;5113043;28;20395;-51
2021/07/17 06:48:31;;;;;;;1.27;1.17;;;29.40;47.90;;;-147.20;100.00;58430.41;5113174;28;20048;-49
2021/07/17 06:50:59;;;;;;;0.98;0.90;;;29.40;47.80;;;-147.20;100.00;58430.41;5113640;28;20055;-51
2021/07/17 06:53:26;;;;;;;1.20;1.10;;;29.40;47.70;;;-147.20;100.00;58430.41;5113178;28;20039;-50
2021/07/17 06:55:51;;;;;;;1.00;1.00;;;29.50;47.70;;;-147.20;100.00;58430.41;5113154;28;20055;-51
2021/07/17 06:58:17;;;;;;;1.02;1.00;;;29.50;47.60;;;-147.20;100.00;58430.41;5112590;28;20063;-54
2021/07/17 07:00:43;;;;;;;1.15;1.08;;;29.60;47.60;;;-147.20;100.00;58430.41;5112867;28;20134;-53
2021/07/17 07:03:09;;;;;;;1.20;1.10;;;29.60;47.50;;;-147.20;100.00;58430.41;5091115;28;20041;-52
2021/07/17 07:05:35;;;;;;;1.20;1.10;;;29.70;47.50;;;-147.20;100.00;58430.41;5112892;28;20417;-51
2021/07/17 07:08:01;;;;;;;1.30;1.15;;;29.70;47.30;;;-147.20;100.00;58430.41;5113167;28;20495;-49
2021/07/17 07:10:26;;;;;;;1.20;1.10;;;29.70;47.20;;;-147.20;100.00;58430.41;5096676;28;20052;-54
2021/07/17 07:12:52;;;;;;;1.40;1.30;;;29.80;47.20;;;-147.20;100.00;58430.41;5097951;28;20055;-53
2021/07/17 07:15:18;;;;;;;0.85;0.85;;;29.80;47.10;;;-147.20;100.00;58430.41;5117176;28;20040;-51
2021/07/17 07:17:44;;;;;;;1.55;1.10;;;29.80;47.00;;;-147.20;100.00;58430.41;5116886;28;20055;-49
2021/07/17 07:20:12;;;;;;;1.52;1.10;;;29.90;46.90;;;-147.20;100.00;58430.41;5116307;28;20130;-49
2021/07/17 07:22:38;;;;;;;1.10;1.00;;;30.00;46.90;;;-147.20;100.00;58430.41;5116494;28;20134;-47
2021/07/17 07:25:06;;;;;;;1.05;1.00;;;30.00;46.80;;;-147.20;100.00;58430.41;5116195;28;20051;-48
2021/07/17 07:27:33;;;;;;;1.20;1.10;;;30.00;46.70;;;-147.20;100.00;58430.41;5116393;28;20063;-51
2021/07/17 07:29:58;;;;;;;1.52;1.42;;;30.10;46.80;;;-147.20;100.00;58430.41;5116202;28;20127;-52
2021/07/17 07:32:24;;;;;;;1.05;1.00;;;30.10;46.60;;;-147.20;100.00;58430.41;5116330;28;20127;-52
2021/07/17 07:34:50;;;;;;;0.95;0.90;;;30.10;46.50;;;-147.20;100.00;58430.41;5116554;28;20039;-47
2021/07/17 07:37:16;;;;;;;0.98;0.98;;;30.20;46.40;;;-147.20;100.00;58430.41;5116181;28;20097;-52
2021/07/17 07:39:41;;;;;;;1.20;1.10;;;30.20;46.40;;;-147.20;100.00;58430.41;5116507;28;20236;-54
2021/07/17 07:42:07;;;;;;;1.02;1.02;;;30.20;46.30;;;-147.20;100.00;58430.41;5115062;28;20096;-53
2021/07/17 07:44:33;;;;;;;1.10;1.00;;;30.30;46.20;;;-147.20;100.00;58430.41;5096174;28;20048;-52
2021/07/17 07:46:59;;;;;;;1.20;0.93;;;30.30;46.10;;;-147.20;100.00;58430.41;5115949;28;20055;-53
2021/07/17 07:49:25;;;;;;;1.15;1.05;;;30.30;46.00;;;-147.20;100.00;58430.41;5115910;28;20047;-52
2021/07/17 07:51:51;;;;;;;1.00;1.00;;;30.40;46.00;;;-147.20;100.00;58430.41;5116019;28;20044;-54
2021/07/17 07:54:17;;;;;;;1.35;1.10;;;30.40;45.90;;;-147.20;100.00;58430.41;5098014;28;20047;-51
2021/07/17 07:56:42;;;;;;;1.20;1.10;;;30.40;46.50;;;-147.20;100.00;58430.41;5115898;28;20171;-52
2021/07/17 07:59:08;;;;;;;0.77;0.77;;;30.50;45.90;;;-147.20;100.00;58430.41;5115683;28;20050;-51
2021/07/17 08:01:34;;;;;;;1.17;1.10;;;30.50;45.80;;;-147.20;100.00;58430.41;5097524;28;20134;-51
2021/07/17 08:04:00;;;;;;;1.38;1.27;;;30.50;45.80;;;-147.20;100.00;58430.41;5115716;28;20039;-54
2021/07/17 08:06:26;;;;;;;1.15;0.90;;;30.50;45.70;;;-147.20;100.00;58430.41;5116211;28;20051;-54
2021/07/17 08:08:51;;;;;;;1.75;1.27;;;30.50;45.70;;;-147.20;100.00;58430.41;5115629;28;20055;-52
2021/07/17 08:11:17;;;;;;;1.30;1.20;;;30.60;45.70;;;-147.20;100.00;58430.41;5115629;28;20552;-51
2021/07/17 08:13:43;;;;;;;1.35;1.23;;;30.60;45.70;;;-147.20;100.00;58430.41;5115965;28;20426;-52
2021/07/17 08:16:10;;;;;;;1.15;1.02;;;30.60;45.70;;;-147.20;100.00;58430.41;5115683;28;20407;-53
2021/07/17 08:18:36;;;;;;;1.13;1.02;;;30.60;45.60;;;-147.20;100.00;58430.41;5096927;28;20163;-52
2021/07/17 08:21:03;;;;;;;0.90;0.90;;;30.60;45.60;;;-147.20;100.00;58430.41;5097371;28;20043;-54
2021/07/17 08:23:28;;;;;;;1.05;1.00;;;30.60;45.60;;;-147.20;100.00;58430.41;5115719;28;20044;-50
2021/07/17 08:25:55;;;;;;;0.93;0.93;;;30.60;45.50;;;-147.20;100.00;58430.41;5115452;28;20387;-53
2021/07/17 08:28:21;;;;;;;1.17;1.10;;;30.70;45.60;;;-147.20;100.00;58430.41;5113929;28;20384;-54
2021/07/17 08:30:47;;;;;;;1.23;1.13;;;30.60;45.50;;;-147.20;100.00;58430.41;5115284;28;20120;-50
2021/07/17 08:33:13;;;;;;;1.13;1.02;;;30.70;45.60;;;-147.20;100.00;58430.41;5115161;28;20047;-55
2021/07/17 08:35:38;;;;;;;1.08;1.00;;;30.70;45.60;;;-147.20;100.00;58430.41;5115174;28;20430;-50
2021/07/17 08:38:04;;;;;;;1.10;1.00;;;30.70;45.60;;;-147.20;100.00;58430.41;5115055;28;20052;-54
2021/07/17 08:40:31;;;;;;;1.10;1.00;;;30.70;45.60;;;-147.20;100.00;58430.41;5115033;28;20051;-53
2021/07/17 08:42:56;;;;;;;1.02;1.00;;;30.70;45.60;;;-147.20;100.00;58430.41;5093123;28;20131;-53
2021/07/17 08:45:24;;;;;;;0.80;0.80;;;30.60;45.50;;;-147.20;100.00;58430.41;5115235;28;20139;-53
2021/07/17 08:47:55;;;;;;;0.80;0.80;;;30.60;45.50;;;-147.20;100.00;58430.41;5115623;28;20093;-54
2021/07/17 08:50:25;;;;;;;0.93;0.93;;;30.60;45.50;;;-147.20;100.00;58430.41;5115150;28;20135;-53
2021/07/17 08:52:56;;;;;;;1.00;1.00;;;30.60;45.60;;;-147.20;100.00;58430.41;5115656;28;20097;-51
2021/07/17 08:55:26;;;;;;;1.00;0.90;;;30.60;45.60;;;-147.20;100.00;58430.41;5115261;28;20403;-49
2021/07/17 08:57:52;;;;;;;1.27;1.17;;;30.60;45.60;;;-147.20;100.00;58430.41;5114731;28;20085;-51
2021/07/17 09:00:34;;;;;;;1.20;1.10;;;30.60;45.60;;;-147.20;100.00;58430.41;5114929;28;20101;-50
2021/07/17 09:03:05;;;;;;;0.93;0.90;;;30.50;45.60;;;-147.20;100.00;58430.41;5114696;28;20483;-50
2021/07/17 09:05:36;;;;;;;1.20;1.10;;;30.50;45.60;;;-147.20;100.00;58430.41;5114985;28;20054;-51
2021/07/17 09:08:03;;;;;;;1.95;1.17;;;30.50;45.70;;;-147.20;100.00;58430.41;5114950;28;20048;-47
2021/07/17 09:10:44;;;;;;;1.25;1.10;;;30.50;45.70;;;-147.20;100.00;58430.41;5114782;28;20097;-52
2021/07/17 09:13:34;;;;;;;1.10;1.00;;;30.50;45.80;;;-147.20;100.00;58430.41;5114351;28;20074;-51
2021/07/17 09:16:29;;;;;;;1.15;1.05;;;30.50;45.80;;;-147.20;100.00;58430.41;5115249;28;20489;-51
2021/07/17 09:18:55;;;;;;;1.08;1.08;;;30.40;45.80;;;-147.20;100.00;58430.41;5114455;28;20143;-51
2021/07/17 09:21:34;;;;;;;0.90;0.90;;;30.40;45.80;;;-147.20;100.00;58430.41;5115173;28;20039;-51
2021/07/17 09:24:04;;;;;;;1.00;0.90;;;30.40;45.80;;;-147.20;100.00;58430.41;5114517;28;20097;-52
2021/07/17 09:26:32;;;;;;;2.55;1.00;;;30.40;45.90;;;-147.20;100.00;58430.41;5095997;28;20188;-53
2021/07/17 09:29:11;;;;;;;1.48;1.08;;;30.40;45.90;;;-147.20;100.00;58430.41;5114682;28;20085;-49
2021/07/17 09:31:49;;;;;;;1.20;1.10;;;30.40;45.90;;;-147.20;100.00;58430.41;5112053;28;20066;-50
2021/07/17 09:34:18;;;;;;;1.05;0.95;;;30.30;45.90;;;-147.20;100.00;58430.41;5114421;28;20104;-50
2021/07/17 09:36:58;;;;;;;0.88;0.88;;;30.30;45.90;;;-147.20;100.00;58430.41;5114157;28;20392;-51
2021/07/17 09:39:49;;;;;;;0.90;0.90;;;30.30;45.90;;;-147.20;100.00;58430.41;5114277;28;20050;-49
2021/07/17 09:42:20;;;;;;;1.10;1.00;;;30.30;45.90;;;-147.20;100.00;58430.41;5082896;28;20047;-55
2021/07/17 09:44:51;;;;;;;1.05;1.05;;;30.30;45.90;;;-147.20;100.00;58430.41;5114162;28;20108;-50
2021/07/17 09:47:19;;;;;;;1.20;1.00;;;30.30;45.90;;;-147.20;100.00;58430.41;5114311;28;20074;-51
2021/07/17 09:49:45;;;;;;;1.15;1.05;;;30.30;45.90;;;-147.20;100.00;58430.41;5114114;28;20058;-55
2021/07/17 09:52:21;;;;;;;1.08;1.00;;;30.30;45.90;;;-147.20;100.00;58430.41;5095872;28;20039;-51
2021/07/17 09:55:12;;;;;;;1.05;0.95;;;30.30;45.90;;;-147.20;100.00;58430.41;5113837;28;20570;-52
2021/07/17 09:57:38;;;;;;;1.02;0.98;;;30.30;46.00;;;-147.20;100.00;58430.41;5113981;28;20395;-50
2021/07/17 10:00:10;;;;;;;1.00;1.00;;;30.30;46.00;;;-147.20;100.00;58430.41;5114470;28;20059;-50